METAR Data
IDs: Format: Raw Decoded Include TAF

Data at: 1104 UTC 18 Jan 2022

KGCM 181055Z AUTO 14005KT 10SM CLR 02/M02 A2991 RMK AO2